Time;durP1;ratioP1;P1;durP2;ratioP2;P2;SDS_P1;SDS_P2;PMS_P1;PMS_P2;Temp;Humidity;BMP_temperature;BMP_pressure;BME280_temperature;BME280_humidity;BME280_pressure;Samples;Min_cycle;Max_cycle;Signal;HPM_P1;HPM_P2
2023/04/13 00:02:22;;;;;;;;;;;;;;;4.63;100.00;98794.97;4897693;29;19927;-85
2023/04/13 00:04:49;;;;;;;;;;;;;;;4.58;100.00;98793.63;4939104;29;20013;-85
2023/04/13 00:07:16;;;;;;;;;;;;;;;4.55;100.00;98796.53;4892422;29;20368;-87
2023/04/13 00:09:44;;;;;;;;;;;;;;;4.52;100.00;98802.06;4890944;29;19930;-87
2023/04/13 00:12:09;;;;;;;;;;;;;;;4.50;100.00;98795.28;4908445;29;20020;-87
2023/04/13 00:14:35;;;;;;;;;;;;;;;4.49;100.00;98798.91;4916048;29;19915;-87
2023/04/13 00:17:04;;;;;;;;;;;;;;;4.47;100.00;98791.19;4915784;29;19923;-85
2023/04/13 00:19:30;;;;;;;;;;;;;;;4.46;100.00;98794.75;4907333;29;19918;-85
2023/04/13 00:21:56;;;;;;;;;;;;;;;4.45;100.00;98798.34;4937204;28;19925;-87
2023/04/13 00:24:21;;;;;;;;;;;;;;;4.42;100.00;98788.19;4908107;29;19919;-85
2023/04/13 00:26:47;;;;;;;;;;;;;;;4.42;100.00;98790.78;4931053;28;20287;-85
2023/04/13 00:29:13;;;;;;;;;;;;;;;4.40;100.00;98788.31;4918978;29;19914;-85
2023/04/13 00:31:38;;;;;;;;;;;;;;;4.38;100.00;98786.84;4918522;29;19927;-87
2023/04/13 00:34:07;;;;;;;;;;;;;;;4.40;100.00;98790.94;4901976;29;19966;-85
2023/04/13 00:36:33;;;;;;;;;;;;;;;4.40;100.00;98797.97;4910865;29;19930;-86
2023/04/13 00:38:59;;;;;;;;;;;;;;;4.41;100.00;98797.00;4932795;29;19919;-85
2023/04/13 00:41:24;;;;;;;;;;;;;;;4.42;100.00;98801.25;4935436;28;19926;-86
2023/04/13 00:43:51;;;;;;;;;;;;;;;4.43;100.00;98813.38;4929329;29;19954;-86
2023/04/13 00:46:17;;;;;;;;;;;;;;;4.43;100.00;98814.19;4924916;29;19961;-85
2023/04/13 00:48:44;;;;;;;;;;;;;;;4.44;100.00;98817.66;4892896;29;19919;-85
2023/04/13 00:51:10;;;;;;;;;;;;;;;4.42;100.00;98816.97;4946717;28;19925;-86
2023/04/13 00:53:36;;;;;;;;;;;;;;;4.41;100.00;98823.97;4894007;29;20009;-86
2023/04/13 00:56:04;;;;;;;;;;;;;;;4.40;100.00;98822.34;4930437;29;20459;-85
2023/04/13 00:58:31;;;;;;;;;;;;;;;4.40;100.00;98821.50;4894810;29;19919;-85
2023/04/13 01:00:57;;;;;;;;;;;;;;;4.39;100.00;98819.88;4910008;29;19971;-85
2023/04/13 01:03:24;;;;;;;;;;;;;;;4.37;100.00;98833.09;4932459;29;19918;-84
2023/04/13 01:06:09;;;;;;;;;;;;;;;4.34;100.00;98828.97;4913045;29;19921;-84
2023/04/13 01:08:38;;;;;;;;;;;;;;;4.34;100.00;98820.31;4928184;29;19963;-85
2023/04/13 01:11:06;;;;;;;;;;;;;;;4.33;100.00;98823.91;4909713;29;19918;-85
2023/04/13 01:13:36;;;;;;;;;;;;;;;4.30;100.00;98824.19;4881208;29;20263;-85
2023/04/13 01:16:12;;;;;;;;;;;;;;;4.28;100.00;98833.97;4917105;29;19970;-85
2023/04/13 01:18:40;;;;;;;;;;;;;;;4.26;100.00;98841.13;4907296;29;20009;-88
2023/04/13 01:21:11;;;;;;;;;;;;;;;4.24;100.00;98843.88;4917138;29;19935;-86
2023/04/13 01:23:45;;;;;;;;;;;;;;;4.28;100.00;98847.03;4928908;29;19982;-85
2023/04/13 01:26:10;;;;;;;;;;;;;;;4.26;100.00;98838.50;4910530;29;19979;-85
2023/04/13 01:28:37;;;;;;;;;;;;;;;4.26;100.00;98843.72;4910734;29;19923;-86
2023/04/13 01:31:05;;;;;;;;;;;;;;;4.29;100.00;98840.81;4919818;29;19918;-86
2023/04/13 01:33:32;;;;;;;;;;;;;;;4.29;100.00;98851.28;4924375;29;20031;-85
2023/04/13 01:36:01;;;;;;;;;;;;;;;4.30;100.00;98850.34;4933397;28;20268;-86
2023/04/13 01:38:27;;;;;;;;;;;;;;;4.28;100.00;98847.88;4876565;29;20053;-86
2023/04/13 01:40:56;;;;;;;;;;;;;;;4.29;100.00;98848.66;4904894;29;20272;-86
2023/04/13 01:43:23;;;;;;;;;;;;;;;4.25;100.00;98853.38;4913305;29;19923;-86
2023/04/13 01:46:12;;;;;;;;;;;;;;;4.25;100.00;98858.63;4919211;29;20023;-86
2023/04/13 01:48:57;;;;;;;;;;;;;;;4.26;100.00;98857.63;4916942;29;19993;-85
2023/04/13 01:51:35;;;;;;;;;;;;;;;4.26;100.00;98854.19;4914189;29;19961;-86
2023/04/13 01:54:09;;;;;;;;;;;;;;;4.25;100.00;98855.16;4934183;29;19919;-86
2023/04/13 01:56:36;;;;;;;;;;;;;;;4.23;100.00;98855.31;4922283;29;19977;-87
2023/04/13 01:59:02;;;;;;;;;;;;;;;4.24;100.00;98861.38;4914491;28;19931;-86
2023/04/13 02:01:29;;;;;;;;;;;;;;;4.23;100.00;98863.16;4907669;29;19919;-86
2023/04/13 02:03:57;;;;;;;;;;;;;;;4.22;100.00;98867.56;4893816;29;19926;-86
2023/04/13 02:06:27;;;;;;;;;;;;;;;4.21;100.00;98865.06;4901214;29;20024;-85
2023/04/13 02:08:53;;;;;;;;;;;;;;;4.18;100.00;98862.75;4924945;29;19948;-86
2023/04/13 02:11:20;;;;;;;;;;;;;;;4.14;100.00;98867.44;4916352;29;19971;-86
2023/04/13 02:13:46;;;;;;;;;;;;;;;4.12;100.00;98860.72;4892518;29;19927;-85
2023/04/13 02:16:16;;;;;;;;;;;;;;;4.05;100.00;98866.50;4903506;29;19958;-86
2023/04/13 02:18:41;;;;;;;;;;;;;;;4.00;100.00;98868.72;4899220;29;19927;-86
2023/04/13 02:21:08;;;;;;;;;;;;;;;3.98;100.00;98865.44;4918431;29;19971;-86
2023/04/13 02:23:34;;;;;;;;;;;;;;;3.96;100.00;98872.56;4905456;29;20002;-86
2023/04/13 02:26:00;;;;;;;;;;;;;;;3.93;100.00;98865.84;4896990;29;19923;-86
2023/04/13 02:28:26;;;;;;;;;;;;;;;3.92;100.00;98874.66;4902780;29;19953;-86
2023/04/13 02:30:55;;;;;;;;;;;;;;;3.89;100.00;98874.09;4910193;29;20014;-86
2023/04/13 02:33:21;;;;;;;;;;;;;;;3.86;100.00;98872.59;4906397;29;19978;-85
2023/04/13 02:35:48;;;;;;;;;;;;;;;3.82;100.00;98882.50;4902331;29;19958;-86
2023/04/13 02:38:15;;;;;;;;;;;;;;;3.81;100.00;98880.00;4916987;29;20055;-85
2023/04/13 02:40:46;;;;;;;;;;;;;;;3.79;100.00;98882.78;4904927;29;19961;-86
2023/04/13 02:43:11;;;;;;;;;;;;;;;3.78;100.00;98885.53;4894688;29;19954;-85
2023/04/13 02:45:38;;;;;;;;;;;;;;;3.75;100.00;98888.41;4905956;29;19922;-86
2023/04/13 02:48:09;;;;;;;;;;;;;;;3.70;100.00;98891.44;4894875;29;19931;-86
2023/04/13 02:50:36;;;;;;;;;;;;;;;3.67;100.00;98884.72;4914581;29;19915;-86
2023/04/13 02:53:06;;;;;;;;;;;;;;;3.64;100.00;98897.22;4917797;29;20344;-84
2023/04/13 02:55:33;;;;;;;;;;;;;;;3.60;100.00;98888.81;4903766;29;20265;-86
2023/04/13 02:58:05;;;;;;;;;;;;;;;3.57;100.00;98892.56;4900200;29;20411;-86
2023/04/13 03:00:31;;;;;;;;;;;;;;;3.56;100.00;98883.06;4905723;29;19967;-86
2023/04/13 03:03:05;;;;;;;;;;;;;;;3.55;100.00;98875.38;4887727;29;19961;-86
2023/04/13 03:05:37;;;;;;;;;;;;;;;3.54;100.00;98874.53;4933446;29;19919;-86
2023/04/13 03:08:05;;;;;;;;;;;;;;;3.52;100.00;98873.84;4923747;29;19918;-86
2023/04/13 03:10:31;;;;;;;;;;;;;;;3.51;100.00;98871.38;4903891;29;20612;-86
2023/04/13 03:12:58;;;;;;;;;;;;;;;3.49;100.00;98873.31;4912665;29;20368;-86
2023/04/13 03:15:24;;;;;;;;;;;;;;;3.45;100.00;98877.97;4919924;29;20332;-86
2023/04/13 03:17:51;;;;;;;;;;;;;;;3.40;100.00;98878.38;4889195;29;19983;-85
2023/04/13 03:20:22;;;;;;;;;;;;;;;3.35;100.00;98881.41;4925095;29;19919;-85
2023/04/13 03:22:58;;;;;;;;;;;;;;;3.33;100.00;98885.94;4913859;29;20414;-85
2023/04/13 03:25:25;;;;;;;;;;;;;;;3.31;100.00;98892.28;4937282;28;19946;-85
2023/04/13 03:27:51;;;;;;;;;;;;;;;3.28;100.00;98892.53;4882500;29;19919;-85
2023/04/13 03:30:20;;;;;;;;;;;;;;;3.25;100.00;98892.81;4921738;29;19948;-85
2023/04/13 03:32:52;;;;;;;;;;;;;;;3.21;100.00;98892.25;4909239;29;19926;-85
2023/04/13 03:35:21;;;;;;;;;;;;;;;3.19;100.00;98913.28;4926699;29;20669;-85
2023/04/13 03:37:47;;;;;;;;;;;;;;;3.17;100.00;98909.16;4923913;29;19926;-85
2023/04/13 03:40:24;;;;;;;;;;;;;;;3.14;100.00;98909.44;4907636;29;20245;-85
2023/04/13 03:42:51;;;;;;;;;;;;;;;3.13;100.00;98919.03;4912698;29;19915;-86
2023/04/13 03:45:18;;;;;;;;;;;;;;;3.10;100.00;98916.69;4926213;29;19922;-86
2023/04/13 03:47:44;;;;;;;;;;;;;;;3.08;100.00;98916.00;4895141;29;19919;-80
2023/04/13 03:50:10;;;;;;;;;;;;;;;3.10;100.00;98914.09;4892529;29;19919;-80
2023/04/13 03:52:36;;;;;;;;;;;;;;;3.10;100.00;98912.31;4923374;29;19923;-86
2023/04/13 03:55:03;;;;;;;;;;;;;;;3.10;100.00;98921.91;4913526;29;19915;-86
2023/04/13 03:57:32;;;;;;;;;;;;;;;3.08;100.00;98916.84;4906057;29;19970;-86
2023/04/13 03:59:59;;;;;;;;;;;;;;;3.08;100.00;98916.84;4921620;29;19925;-85
2023/04/13 04:02:47;;;;;;;;;;;;;;;3.09;100.00;98917.66;4919907;29;19922;-86
2023/04/13 04:05:19;;;;;;;;;;;;;;;3.10;100.00;98929.75;4943485;28;19926;-86
2023/04/13 04:07:50;;;;;;;;;;;;;;;3.11;100.00;98918.34;4928530;28;19926;-86
2023/04/13 04:10:18;;;;;;;;;;;;;;;3.10;100.00;98922.75;4938716;28;19943;-85
2023/04/13 04:12:45;;;;;;;;;;;;;;;3.07;100.00;98923.00;4917060;29;19971;-85
2023/04/13 04:15:10;;;;;;;;;;;;;;;3.06;100.00;98917.91;4901012;29;19915;-86
2023/04/13 04:17:37;;;;;;;;;;;;;;;3.02;100.00;98925.19;4919957;29;19919;-86
2023/04/13 04:20:05;;;;;;;;;;;;;;;3.01;100.00;98922.72;4926856;29;19922;-86
2023/04/13 04:22:33;;;;;;;;;;;;;;;2.97;100.00;98924.75;4914103;29;19915;-85
2023/04/13 04:25:00;;;;;;;;;;;;;;;2.93;100.00;98926.00;4937344;28;19971;-85
2023/04/13 04:27:27;;;;;;;;;;;;;;;2.92;100.00;98919.94;4944373;28;19926;-85
2023/04/13 04:29:58;;;;;;;;;;;;;;;2.89;100.00;98925.44;4938555;28;19950;-85
2023/04/13 04:32:32;;;;;;;;;;;;;;;2.87;100.00;98923.91;4897670;29;19969;-85
2023/04/13 04:35:02;;;;;;;;;;;;;;;2.84;100.00;98927.59;4937332;28;19919;-85
2023/04/13 04:37:28;;;;;;;;;;;;;;;2.84;100.00;98919.78;4933037;29;19915;-85
2023/04/13 04:40:08;;;;;;;;;;;;;;;2.79;100.00;98932.38;4915462;29;19915;-85
2023/04/13 04:42:34;;;;;;;;;;;;;;;2.76;100.00;98930.88;4921218;29;19926;-85
2023/04/13 04:45:06;;;;;;;;;;;;;;;2.74;100.00;98924.94;4929273;29;19918;-85
2023/04/13 04:47:40;;;;;;;;;;;;;;;2.71;100.00;98920.81;4944034;28;19923;-85
2023/04/13 04:50:20;;;;;;;;;;;;;;;2.70;100.00;98929.63;4931033;28;19954;-86
2023/04/13 04:52:52;;;;;;;;;;;;;;;2.68;100.00;98930.69;4939278;28;19926;-85
2023/04/13 04:55:22;;;;;;;;;;;;;;;2.65;100.00;98931.78;4938721;29;19942;-86
2023/04/13 04:57:48;;;;;;;;;;;;;;;2.65;100.00;98938.78;4909299;29;19915;-85
2023/04/13 05:00:15;;;;;;;;;;;;;;;2.62;100.00;98939.03;4930282;29;20005;-85
2023/04/13 05:02:49;;;;;;;;;;;;;;;2.62;100.00;98926.00;4906995;29;19927;-85
2023/04/13 05:05:15;;;;;;;;;;;;;;;2.61;100.00;98930.41;4888246;29;19926;-85
2023/04/13 05:07:41;;;;;;;;;;;;;;;2.62;100.00;98944.25;4898736;29;19930;-85
2023/04/13 05:10:08;;;;;;;;;;;;;;;2.61;100.00;98946.06;4901715;29;19918;-85
2023/04/13 05:12:37;;;;;;;;;;;;;;;2.57;100.00;98940.28;4937914;29;19915;-86
2023/04/13 05:15:03;;;;;;;;;;;;;;;2.56;100.00;98943.00;4914231;29;19926;-86
2023/04/13 05:17:29;;;;;;;;;;;;;;;2.55;100.00;98936.97;4930572;28;19923;-85
2023/04/13 05:19:55;;;;;;;;;;;;;;;2.55;100.00;98943.97;4898893;29;20454;-85
2023/04/13 05:22:31;;;;;;;;;;;;;;;2.53;100.00;98945.88;4908315;29;19926;-85
2023/04/13 05:25:02;;;;;;;;;;;;;;;2.52;100.00;98945.03;4905953;29;19919;-85
2023/04/13 05:27:29;;;;;;;;;;;;;;;2.53;100.00;98953.69;4930639;29;19930;-86
2023/04/13 05:29:56;;;;;;;;;;;;;;;2.52;100.00;98965.06;4920042;29;20018;-85
2023/04/13 05:32:23;;;;;;;;;;;;;;;2.51;100.00;98968.66;4840260;29;19933;-85
2023/04/13 05:34:52;;;;;;;;;;;;;;;2.51;100.00;98959.06;4924048;29;19934;-85
2023/04/13 05:37:23;;;;;;;;;;;;;;;2.52;100.00;98959.84;4910287;29;19922;-81
2023/04/13 05:39:49;;;;;;;;;;;;;;;2.52;100.00;98963.31;4915805;29;19923;-80
2023/04/13 05:42:18;;;;;;;;;;;;;;;2.52;100.00;98955.47;4926295;29;20394;-85
2023/04/13 05:44:45;;;;;;;;;;;;;;;2.55;100.00;98959.63;4912513;29;19926;-85
2023/04/13 05:47:12;;;;;;;;;;;;;;;2.55;100.00;98963.03;4902095;29;19966;-85
2023/04/13 05:49:39;;;;;;;;;;;;;;;2.55;100.00;98970.88;4944487;29;19925;-84
2023/04/13 05:52:06;;;;;;;;;;;;;;;2.58;100.00;98970.59;4922427;29;19921;-85
2023/04/13 05:54:41;;;;;;;;;;;;;;;2.66;100.00;98963.94;4899857;29;19986;-85
2023/04/13 05:57:07;;;;;;;;;;;;;;;2.70;100.00;98971.38;4899818;29;20484;-85
2023/04/13 05:59:34;;;;;;;;;;;;;;;2.77;100.00;98976.06;4914784;29;19915;-85
2023/04/13 06:02:01;;;;;;;;;;;;;;;2.79;100.00;98974.97;4914688;29;20013;-85
2023/04/13 06:04:27;;;;;;;;;;;;;;;2.90;100.00;98981.06;4915139;29;20054;-85
2023/04/13 06:06:54;;;;;;;;;;;;;;;2.94;100.00;98991.13;4906260;29;19945;-84
2023/04/13 06:09:20;;;;;;;;;;;;;;;3.03;100.00;98988.66;4929960;29;20013;-85
2023/04/13 06:11:45;;;;;;;;;;;;;;;3.14;100.00;98998.19;4907545;29;19947;-85
2023/04/13 06:14:11;;;;;;;;;;;;;;;3.26;100.00;98997.13;4909758;29;20272;-85
2023/04/13 06:16:39;;;;;;;;;;;;;;;3.34;100.00;98993.84;4888152;29;20012;-85
2023/04/13 06:19:05;;;;;;;;;;;;;;;3.45;100.00;98993.75;4911071;29;20266;-85
2023/04/13 06:21:32;;;;;;;;;;;;;;;3.54;100.00;99001.72;4880108;29;19916;-85
2023/04/13 06:23:57;;;;;;;;;;;;;;;3.65;100.00;99004.22;4914309;29;20391;-85
2023/04/13 06:26:28;;;;;;;;;;;;;;;3.80;100.00;99009.06;4891378;29;19919;-85
2023/04/13 06:28:55;;;;;;;;;;;;;;;3.94;100.00;99016.50;4886157;29;20380;-85
2023/04/13 06:31:22;;;;;;;;;;;;;;;4.17;100.00;99018.03;4929420;29;19944;-85
2023/04/13 06:33:49;;;;;;;;;;;;;;;4.40;100.00;99022.94;4905662;29;20047;-85
2023/04/13 06:36:21;;;;;;;;;;;;;;;4.63;100.00;99028.72;4912163;29;19919;-85
2023/04/13 06:38:47;;;;;;;;;;;;;;;4.79;100.00;99027.28;4907824;29;19919;-85
2023/04/13 06:41:13;;;;;;;;;;;;;;;4.91;100.00;99028.78;4920039;29;19915;-85
2023/04/13 06:43:42;;;;;;;;;;;;;;;5.07;100.00;99028.16;4900668;29;19914;-85
2023/04/13 06:46:17;;;;;;;;;;;;;;;5.24;100.00;99030.19;4929792;29;19918;-86
2023/04/13 06:48:45;;;;;;;;;;;;;;;5.42;100.00;99033.66;4922560;29;19965;-86
2023/04/13 06:51:12;;;;;;;;;;;;;;;5.58;100.00;99034.81;4902670;29;19922;-85
2023/04/13 06:53:40;;;;;;;;;;;;;;;5.80;100.00;99030.97;4920229;29;20372;-86
2023/04/13 06:56:06;;;;;;;;;;;;;;;5.96;100.00;99035.53;4834114;29;19915;-85
2023/04/13 06:58:32;;;;;;;;;;;;;;;6.16;100.00;99035.41;4927514;29;20013;-85
2023/04/13 07:00:57;;;;;;;;;;;;;;;6.28;100.00;99043.88;4930129;29;20062;-85
2023/04/13 07:03:26;;;;;;;;;;;;;;;6.41;100.00;99042.66;4903692;29;20267;-85
2023/04/13 07:05:53;;;;;;;;;;;;;;;6.53;100.00;99040.66;4882131;29;19925;-85
2023/04/13 07:08:19;;;;;;;;;;;;;;;6.63;100.00;99053.66;4935870;28;19937;-85
2023/04/13 07:10:45;;;;;;;;;;;;;;;6.76;100.00;99046.22;4906468;29;19915;-86
2023/04/13 07:13:25;;;;;;;;;;;;;;;6.92;100.00;99045.50;4891773;29;21497;-86
2023/04/13 07:15:51;;;;;;;;;;;;;;;7.00;100.00;99046.50;4895527;29;19922;-86
2023/04/13 07:18:16;;;;;;;;;;;;;;;7.02;100.00;99040.13;4905836;29;19918;-85
2023/04/13 07:20:42;;;;;;;;;;;;;;;7.13;100.00;99046.91;4895434;29;19918;-86
2023/04/13 07:23:08;;;;;;;;;;;;;;;7.11;100.00;99043.63;4905374;29;19922;-85
2023/04/13 07:25:34;;;;;;;;;;;;;;;7.16;100.00;99043.97;4895009;29;19914;-86
2023/04/13 07:28:00;;;;;;;;;;;;;;;7.20;100.00;99047.09;4939002;29;19925;-80
2023/04/13 07:30:26;;;;;;;;;;;;;;;7.33;100.00;99041.41;4904192;29;19919;-80
2023/04/13 07:32:52;;;;;;;;;;;;;;;7.42;100.00;99035.19;4914704;29;19918;-86
2023/04/13 07:35:19;;;;;;;;;;;;;;;7.39;100.00;99042.59;4921999;29;19919;-85
2023/04/13 07:37:48;;;;;;;;;;;;;;;7.36;100.00;99035.84;4892758;29;19945;-85
2023/04/13 07:40:14;;;;;;;;;;;;;;;7.41;100.00;99035.34;4922608;29;19942;-86
2023/04/13 07:42:46;;;;;;;;;;;;;;;7.37;100.00;99037.50;4871624;29;20305;-87
2023/04/13 07:45:12;;;;;;;;;;;;;;;7.36;100.00;99038.47;4900603;29;19915;-86
2023/04/13 07:47:38;;;;;;;;;;;;;;;7.44;100.00;99040.28;4910719;29;19923;-87
2023/04/13 07:50:08;;;;;;;;;;;;;;;7.54;100.00;99040.16;4891100;29;19921;-86
2023/04/13 07:52:34;;;;;;;;;;;;;;;7.56;100.00;99036.38;4901346;29;19919;-86
2023/04/13 07:55:01;;;;;;;;;;;;;;;7.49;100.00;99045.91;4920356;29;19915;-87
2023/04/13 07:57:30;;;;;;;;;;;;;;;7.45;100.00;99041.97;4937908;29;20375;-87
2023/04/13 08:00:00;;;;;;;;;;;;;;;7.38;100.00;99051.44;4909270;29;20014;-88
2023/04/13 08:02:26;;;;;;;;;;;;;;;7.17;100.00;99050.88;4922905;29;19919;-87
2023/04/13 08:04:55;;;;;;;;;;;;;;;7.09;100.00;99047.38;4921324;29;20376;-87
2023/04/13 08:07:26;;;;;;;;;;;;;;;7.12;100.00;99060.22;4890431;29;19919;-85
2023/04/13 08:09:52;;;;;;;;;;;;;;;7.16;100.00;99056.28;4912386;29;20332;-86
2023/04/13 08:12:18;;;;;;;;;;;;;;;7.19;100.00;99066.47;4914415;29;19915;-86
2023/04/13 08:14:45;;;;;;;;;;;;;;;7.19;100.00;99058.59;4929459;29;19929;-86
2023/04/13 08:17:11;;;;;;;;;;;;;;;7.24;100.00;99061.59;4912965;29;20005;-86
2023/04/13 08:19:37;;;;;;;;;;;;;;;7.23;100.00;99073.06;4899723;29;19926;-84
2023/04/13 08:22:03;;;;;;;;;;;;;;;7.21;100.00;99077.66;4898151;29;19916;-87
2023/04/13 08:24:29;;;;;;;;;;;;;;;7.17;100.00;99077.16;4930411;29;19951;-86
2023/04/13 08:26:57;;;;;;;;;;;;;;;7.16;100.00;99083.41;4889142;29;19950;-79
2023/04/13 08:29:23;;;;;;;;;;;;;;;7.15;100.00;99086.19;4898421;29;19915;-79
2023/04/13 08:31:49;;;;;;;;;;;;;;;7.18;100.00;99083.25;4920971;29;20388;-87
2023/04/13 08:34:18;;;;;;;;;;;;;;;7.24;100.00;99082.63;4896417;29;19922;-86
2023/04/13 08:36:45;;;;;;;;;;;;;;;7.32;100.00;99089.72;4906064;29;20324;-87
2023/04/13 08:39:12;;;;;;;;;;;;;;;7.34;100.00;99090.38;4909262;29;20006;-85
2023/04/13 08:41:43;;;;;;;;;;;;;;;7.41;100.00;99085.31;4930076;29;19943;-85
2023/04/13 08:44:10;;;;;;;;;;;;;;;7.42;100.00;99093.03;4907044;29;19927;-87
2023/04/13 08:46:41;;;;;;;;;;;;;;;7.48;100.00;99088.97;4896686;29;19919;-86
2023/04/13 08:49:08;;;;;;;;;;;;;;;7.52;100.00;99092.09;4859307;29;19923;-87
2023/04/13 08:51:46;;;;;;;;;;;;;;;7.55;100.00;99087.34;4924243;29;19915;-87
2023/04/13 08:54:14;;;;;;;;;;;;;;;7.61;100.00;99095.59;4895701;29;19927;-87
2023/04/13 08:56:43;;;;;;;;;;;;;;;7.70;100.00;99097.25;4901928;29;20271;-87
2023/04/13 08:59:10;;;;;;;;;;;;;;;7.74;100.00;99093.31;4914618;29;20364;-85
2023/04/13 09:01:37;;;;;;;;;;;;;;;7.82;100.00;99103.03;4901935;29;19930;-85
2023/04/13 09:04:03;;;;;;;;;;;;;;;7.88;100.00;99102.44;4932451;29;20279;-86
2023/04/13 09:06:34;;;;;;;;;;;;;;;7.93;100.00;99100.13;4905072;29;19930;-88
2023/04/13 09:09:06;;;;;;;;;;;;;;;7.97;100.00;99107.69;4941685;28;19930;-87
2023/04/13 09:11:32;;;;;;;;;;;;;;;8.02;100.00;99100.97;4939901;28;19915;-87
2023/04/13 09:13:57;;;;;;;;;;;;;;;8.14;100.00;99093.59;4906659;29;19977;-87
2023/04/13 09:16:23;;;;;;;;;;;;;;;8.30;100.00;99095.44;4930567;29;19915;-86
2023/04/13 09:18:54;;;;;;;;;;;;;;;8.42;100.00;99088.03;4910320;29;20296;-86
2023/04/13 09:21:21;;;;;;;;;;;;;;;8.40;100.00;99097.06;4899874;29;19927;-87
2023/04/13 09:23:53;;;;;;;;;;;;;;;8.29;100.00;99091.16;4944121;29;19926;-87
2023/04/13 09:26:19;;;;;;;;;;;;;;;8.42;100.00;99089.84;4937563;29;19922;-79
2023/04/13 09:28:46;;;;;;;;;;;;;;;8.43;100.00;99089.69;4920408;29;20414;-79
2023/04/13 09:31:12;;;;;;;;;;;;;;;8.57;100.00;99084.75;4925339;29;19915;-86
2023/04/13 09:33:48;;;;;;;;;;;;;;;8.66;100.00;99091.66;4899331;29;19973;-87
2023/04/13 09:36:15;;;;;;;;;;;;;;;8.73;100.00;99091.84;4922626;29;19915;-86
2023/04/13 09:38:49;;;;;;;;;;;;;;;8.78;100.00;99100.06;4935062;28;19915;-87
2023/04/13 09:41:15;;;;;;;;;;;;;;;8.89;100.00;99098.91;4940802;28;20291;-85
2023/04/13 09:43:40;;;;;;;;;;;;;;;9.05;100.00;99100.69;4930055;29;19914;-86
2023/04/13 09:46:12;;;;;;;;;;;;;;;9.11;100.00;99090.47;4907679;29;19915;-86
2023/04/13 09:48:39;;;;;;;;;;;;;;;9.04;100.00;99096.44;4932113;28;20051;-86
2023/04/13 09:51:05;;;;;;;;;;;;;;;9.03;100.00;99094.75;4925405;29;19915;-87
2023/04/13 09:53:41;;;;;;;;;;;;;;;9.06;100.00;99098.91;4941848;28;20061;-85
2023/04/13 09:56:07;;;;;;;;;;;;;;;8.98;100.00;99094.44;4918101;29;20077;-87
2023/04/13 09:58:36;;;;;;;;;;;;;;;8.99;100.00;99096.09;4926000;29;20028;-85
2023/04/13 10:01:02;;;;;;;;;;;;;;;9.12;100.00;99090.31;4933545;29;19938;-87
2023/04/13 10:03:28;;;;;;;;;;;;;;;9.32;100.00;99097.03;4915818;29;19919;-87
2023/04/13 10:05:54;;;;;;;;;;;;;;;9.26;100.00;99101.13;4920822;29;19930;-86
2023/04/13 10:08:21;;;;;;;;;;;;;;;9.20;100.00;99097.38;4919685;28;20278;-87
2023/04/13 10:10:48;;;;;;;;;;;;;;;9.21;100.00;99096.38;4933000;29;20275;-79
2023/04/13 10:13:22;;;;;;;;;;;;;;;9.32;100.00;99091.75;4927901;29;19922;-79
2023/04/13 10:15:51;;;;;;;;;;;;;;;9.48;100.00;99089.03;4918983;29;19923;-87
2023/04/13 10:18:32;;;;;;;;;;;;;;;9.63;100.00;99097.06;4897725;29;19922;-85
2023/04/13 10:20:58;;;;;;;;;;;;;;;9.72;100.00;99092.56;4927774;29;20328;-86
2023/04/13 10:23:26;;;;;;;;;;;;;;;9.76;100.00;99087.78;4914236;29;19921;-86
2023/04/13 10:25:52;;;;;;;;;;;;;;;9.75;100.00;99108.06;4941909;28;19958;-79
2023/04/13 10:28:18;;;;;;;;;;;;;;;9.76;100.00;99106.25;4896900;29;19978;-79
2023/04/13 10:30:48;;;;;;;;;;;;;;;9.67;100.00;99100.16;4920353;29;19914;-85
2023/04/13 10:33:14;;;;;;;;;;;;;;;9.57;100.00;99108.31;4908227;29;20005;-85
2023/04/13 10:35:40;;;;;;;;;;;;;;;9.52;100.00;99105.34;4914407;29;19922;-86
2023/04/13 10:38:07;;;;;;;;;;;;;;;9.49;100.00;99110.97;4910384;29;19966;-87
2023/04/13 10:40:43;;;;;;;;;;;;;;;9.37;100.00;99110.50;4923930;29;19915;-86
2023/04/13 10:43:09;;;;;;;;;;;;;;;9.32;100.00;99097.03;4915662;29;20031;-86
2023/04/13 10:45:36;;;;;;;;;;;;;;;9.58;100.00;99107.31;4912324;29;19918;-86
2023/04/13 10:48:02;;;;;;;;;;;;;;;9.71;100.00;99098.00;4897473;29;20594;-85
2023/04/13 10:50:28;;;;;;;;;;;;;;;9.80;100.00;99105.72;4912281;29;19919;-86
2023/04/13 10:52:53;;;;;;;;;;;;;;;10.01;100.00;99091.09;4908204;29;19915;-86
2023/04/13 10:55:22;;;;;;;;;;;;;;;10.13;100.00;99093.34;4907014;29;19919;-86
2023/04/13 10:57:47;;;;;;;;;;;;;;;10.30;100.00;99101.97;4906948;29;19962;-87
2023/04/13 11:00:20;;;;;;;;;;;;;;;10.49;100.00;99099.88;4927199;29;20005;-87
2023/04/13 11:02:48;;;;;;;;;;;;;;;10.68;100.00;99098.56;4919784;29;19919;-86
2023/04/13 11:05:21;;;;;;;;;;;;;;;10.59;100.00;99104.94;4923790;29;19918;-89
2023/04/13 11:07:50;;;;;;;;;;;;;;;10.40;100.00;99105.19;4903619;29;19941;-87
2023/04/13 11:10:22;;;;;;;;;;;;;;;10.29;98.93;99098.50;4906180;29;20051;-87
2023/04/13 11:12:50;;;;;;;;;;;;;;;10.39;97.35;99097.44;4928105;29;19925;-86
2023/04/13 11:15:22;;;;;;;;;;;;;;;10.44;100.00;99103.03;4894548;29;19938;-86
2023/04/13 11:17:56;;;;;;;;;;;;;;;10.18;100.00;99107.66;4926978;29;20271;-86
2023/04/13 11:20:32;;;;;;;;;;;;;;;10.02;100.00;99105.94;4906735;29;19919;-86
2023/04/13 11:23:05;;;;;;;;;;;;;;;10.08;100.00;99101.75;4907251;29;19923;-87
2023/04/13 11:25:31;;;;;;;;;;;;;;;10.30;100.00;99105.41;4909082;29;20054;-87
2023/04/13 11:28:00;;;;;;;;;;;;;;;10.53;100.00;99102.00;4889341;29;19922;-87
2023/04/13 11:30:27;;;;;;;;;;;;;;;10.61;98.29;99094.97;4923475;29;19915;-85
2023/04/13 11:32:53;;;;;;;;;;;;;;;10.80;97.18;99091.03;4921620;29;19919;-87
2023/04/13 11:35:20;;;;;;;;;;;;;;;11.08;100.00;99095.72;4909757;29;19966;-87
2023/04/13 11:37:48;;;;;;;;;;;;;;;11.23;100.00;99103.66;4903521;29;20513;-87
2023/04/13 11:40:20;;;;;;;;;;;;;;;11.18;98.19;99105.22;4937716;28;19947;-87
2023/04/13 11:42:47;;;;;;;;;;;;;;;10.95;94.33;99114.84;4919933;29;19930;-88
2023/04/13 11:45:15;;;;;;;;;;;;;;;10.84;93.66;99107.34;4908959;29;19961;-88
2023/04/13 11:47:40;;;;;;;;;;;;;;;10.66;89.32;99111.13;4913889;29;19922;-89
2023/04/13 11:50:06;;;;;;;;;;;;;;;10.60;95.04;99111.84;4906887;29;19922;-88
2023/04/13 11:52:35;;;;;;;;;;;;;;;10.51;98.77;99113.75;4902350;29;19915;-87
2023/04/13 11:55:05;;;;;;;;;;;;;;;10.48;99.47;99119.38;4894744;29;19922;-89
2023/04/13 11:57:31;;;;;;;;;;;;;;;10.49;96.99;99115.72;4885503;29;19923;-87
2023/04/13 11:59:56;;;;;;;;;;;;;;;10.51;93.27;99117.19;4914391;29;19915;-88
2023/04/13 12:02:30;;;;;;;;;;;;;;;10.67;93.25;99112.78;4904822;29;19922;-88
2023/04/13 12:04:56;;;;;;;;;;;;;;;10.88;94.45;99113.91;4920011;29;20375;-88
2023/04/13 12:07:23;;;;;;;;;;;;;;;11.11;94.41;99095.38;4903797;29;19921;-87
2023/04/13 12:09:52;;;;;;;;;;;;;;;11.19;81.98;99106.84;4924541;29;20661;-89
2023/04/13 12:12:20;;;;;;;;;;;;;;;11.23;86.09;99110.75;4915359;29;19954;-79
2023/04/13 12:14:56;;;;;;;;;;;;;;;11.15;84.26;99116.97;4925435;29;20455;-79
2023/04/13 12:17:28;;;;;;;;;;;;;;;11.33;82.94;99111.31;4893247;29;19922;-88
2023/04/13 12:19:55;;;;;;;;;;;;;;;11.53;88.87;99105.50;4915789;29;20001;-87
2023/04/13 12:22:20;;;;;;;;;;;;;;;11.77;89.42;99091.13;4918484;29;19957;-87
2023/04/13 12:24:46;;;;;;;;;;;;;;;11.88;76.11;99089.81;4911444;29;19970;-87
2023/04/13 12:27:11;;;;;;;;;;;;;;;11.80;76.66;99087.28;4917304;29;20473;-88
2023/04/13 12:29:38;;;;;;;;;;;;;;;11.69;80.35;99096.50;4923674;29;20014;-87
2023/04/13 12:32:10;;;;;;;;;;;;;;;11.93;75.17;99083.94;4904507;29;19986;-87
2023/04/13 12:34:36;;;;;;;;;;;;;;;12.18;72.35;99078.34;4918077;29;19915;-87
2023/04/13 12:37:03;;;;;;;;;;;;;;;12.28;71.43;99086.78;4905043;29;19938;-80
2023/04/13 12:39:28;;;;;;;;;;;;;;;12.38;77.93;99083.00;4915860;28;19958;-80
2023/04/13 12:41:55;;;;;;;;;;;;;;;12.45;66.32;99083.06;4914276;29;19981;-87
2023/04/13 12:44:21;;;;;;;;;;;;;;;12.38;65.90;99083.00;4910515;29;20871;-87
2023/04/13 12:46:47;;;;;;;;;;;;;;;12.38;62.33;99077.69;4915562;29;19929;-87
2023/04/13 12:49:13;;;;;;;;;;;;;;;12.42;66.09;99076.34;4895709;29;19923;-86
2023/04/13 12:51:38;;;;;;;;;;;;;;;12.42;67.42;99083.44;4898337;29;19962;-87